
Distance (Route):
Temperature : -25.3°C
Humidity : 46.7%
Pressure : 0hPa| Receiver | Frames | First received | Last received |
|---|---|---|---|
| LZ4TU-5 | 102 | 2026-08-30 17:39:56 | 2026-08-30 18:48:39 |
| Receiver | Date | Latitude | Longitude | Direction | Speed | Altitude | Climb | Temperature | Humidity | Pressure | Voltage | Killtimer | Uptime | BKT | XDATA |
|---|---|---|---|---|---|---|---|---|---|---|---|---|---|---|---|
| LZ4TU-5 | 2026-08-30 18:48:39 | 43.17393 | 20.40191 | 139° | 33km/h | 8239m | -16.5m/s | -25.3°C | 46.7% | 0hPa | 0V | 00:00:00 | 00:00:00 | 00:00:00 | |
| LZ4TU-5 | 2026-08-30 18:48:34 | 43.17422 | 20.40153 | 138° | 33km/h | 8315m | -16.1m/s | -26.1°C | 47.9% | 0hPa | 0V | 00:00:00 | 00:00:00 | 00:00:00 | |
| LZ4TU-5 | 2026-08-30 18:47:19 | 43.17929 | 20.39295 | 120° | 58km/h | 9509m | -16.2m/s | -35.6°C | 71.7% | 0hPa | 0V | 00:00:00 | 00:00:00 | 00:00:00 | |
| LZ4TU-5 | 2026-08-30 18:47:15 | 43.17956 | 20.39223 | 118° | 58km/h | 9574m | -16.4m/s | -35.9°C | 67.6% | 0hPa | 0V | 00:00:00 | 00:00:00 | 00:00:00 | |
| LZ4TU-5 | 2026-08-30 18:44:42 | 43.18723 | 20.36584 | 119° | 62km/h | 12469m | -24.9m/s | -56.4°C | 20.6% | 0hPa | 0V | 00:00:00 | 00:00:00 | 00:00:00 | |
| LZ4TU-5 | 2026-08-30 18:44:37 | 43.18761 | 20.36486 | 118° | 66km/h | 12600m | -25.0m/s | -57.2°C | 18.4% | 0hPa | 0V | 00:00:00 | 00:00:00 | 00:00:00 | |
| LZ4TU-5 | 2026-08-30 18:43:10 | 43.19317 | 20.34886 | 105° | 24km/h | 14771m | -29.4m/s | -58.6°C | 1.2% | 0hPa | 0V | 00:00:00 | 00:00:00 | 00:00:00 | |
| LZ4TU-5 | 2026-08-30 18:41:48 | 43.19445 | 20.33996 | 59° | 35km/h | 17072m | -31.2m/s | -60.2°C | 0.0% | 0hPa | 0V | 00:00:00 | 00:00:00 | 00:00:00 | |
| LZ4TU-5 | 2026-08-30 18:41:43 | 43.19428 | 20.33938 | 77° | 37km/h | 17218m | -30.8m/s | -59.8°C | 0.0% | 0hPa | 0V | 00:00:00 | 00:00:00 | 00:00:00 | |
| LZ4TU-5 | 2026-08-30 18:41:39 | 43.19419 | 20.33893 | 82° | 29km/h | 17353m | -33.9m/s | -59.2°C | 0.0% | 0hPa | 0V | 00:00:00 | 00:00:00 | 00:00:00 | |
| LZ4TU-5 | 2026-08-30 18:40:24 | 43.19382 | 20.33678 | 57° | 11km/h | 19729m | -30.2m/s | -57.3°C | 0.0% | 0hPa | 0V | 00:00:00 | 00:00:00 | 00:00:00 | |
| LZ4TU-5 | 2026-08-30 18:40:19 | 43.19377 | 20.33662 | 83° | 11km/h | 19878m | -28.6m/s | -57.1°C | 0.0% | 0hPa | 0V | 00:00:00 | 00:00:00 | 00:00:00 | |
| LZ4TU-5 | 2026-08-30 18:39:04 | 43.19346 | 20.33827 | 271° | 15km/h | 22299m | -33.0m/s | -56.0°C | 0.0% | 0hPa | 0V | 00:00:00 | 00:00:00 | 00:00:00 | |
| LZ4TU-5 | 2026-08-30 18:38:59 | 43.19338 | 20.33842 | 335° | 13km/h | 22461m | -35.3m/s | -55.3°C | 0% | 0hPa | 0V | 00:00:00 | 00:00:00 | 00:00:00 | |
| LZ4TU-5 | 2026-08-30 18:37:46 | 43.19343 | 20.33992 | 248° | 18km/h | 25173m | -38.8m/s | -51.2°C | 0.0% | 0hPa | 0V | 00:00:00 | 00:00:00 | 00:00:00 | |
| LZ4TU-5 | 2026-08-30 18:37:41 | 43.19351 | 20.34013 | 246° | 9km/h | 25362m | -36.3m/s | -51.3°C | 0.0% | 0hPa | 0V | 00:00:00 | 00:00:00 | 00:00:00 | |
| LZ4TU-5 | 2026-08-30 18:37:37 | 43.19355 | 20.34021 | 225° | 5km/h | 25518m | -43.7m/s | -50.4°C | 0.0% | 0hPa | 0V | 00:00:00 | 00:00:00 | 00:00:00 | |
| LZ4TU-5 | 2026-08-30 18:37:32 | 43.19361 | 20.34029 | 196° | 7km/h | 25728m | -37.8m/s | -50.7°C | 0.0% | 0hPa | 0V | 00:00:00 | 00:00:00 | 00:00:00 | |
| LZ4TU-5 | 2026-08-30 18:36:17 | 43.19294 | 20.34164 | 281° | 20km/h | 28671m | -45.7m/s | -44.8°C | 0.0% | 0hPa | 0V | 00:00:00 | 00:00:00 | 00:00:00 | |
| LZ4TU-5 | 2026-08-30 18:36:12 | 43.19297 | 20.34192 | 284° | 22km/h | 28873m | -25.6m/s | -45.8°C | 0.0% | 0hPa | 0V | 00:00:00 | 00:00:00 | 00:00:00 | |
| LZ4TU-5 | 2026-08-30 18:34:57 | 43.19369 | 20.34345 | 127° | 27km/h | 28453m | 11.9m/s | -47.1°C | 0.0% | 0hPa | 0V | 00:00:00 | 00:00:00 | 00:00:00 | |
| LZ4TU-5 | 2026-08-30 18:34:52 | 43.19388 | 20.34358 | 5° | 31km/h | 28420m | 5.3m/s | -47.4°C | 0.0% | 0hPa | 0V | 00:00:00 | 00:00:00 | 00:00:00 | |
| LZ4TU-5 | 2026-08-30 18:33:38 | 43.19285 | 20.34281 | 17° | 18km/h | 27907m | 10.3m/s | -48.2°C | 0.1% | 0hPa | 0V | 00:00:00 | 00:00:00 | 00:00:00 | |
| LZ4TU-5 | 2026-08-30 18:33:34 | 43.19258 | 20.34301 | 260° | 13km/h | 27876m | 11.5m/s | -48.3°C | 0.1% | 0hPa | 0V | 00:00:00 | 00:00:00 | 00:00:00 | |
| LZ4TU-5 | 2026-08-30 18:32:20 | 43.19161 | 20.34457 | 111° | 31km/h | 27376m | 4.1m/s | -46.9°C | 0.0% | 0hPa | 0V | 00:00:00 | 00:00:00 | 00:00:00 | |
| LZ4TU-5 | 2026-08-30 18:32:15 | 43.19158 | 20.34469 | 36° | 31km/h | 27346m | 5.6m/s | -47.0°C | 0.0% | 0hPa | 0V | 00:00:00 | 00:00:00 | 00:00:00 | |
| LZ4TU-5 | 2026-08-30 18:31:00 | 43.19005 | 20.34414 | 346° | 29km/h | 26897m | 5.6m/s | -49.8°C | 0.0% | 0hPa | 0V | 00:00:00 | 00:00:00 | 00:00:00 | |
| LZ4TU-5 | 2026-08-30 18:30:55 | 43.18999 | 20.34428 | 116° | 9km/h | 26870m | 5.7m/s | -49.9°C | 0.0% | 0hPa | 0V | 00:00:00 | 00:00:00 | 00:00:00 | |
| LZ4TU-5 | 2026-08-30 18:29:41 | 43.18928 | 20.34782 | 248° | 26km/h | 26407m | 3.9m/s | -50.5°C | 0.0% | 0hPa | 0V | 00:00:00 | 00:00:00 | 00:00:00 | |
| LZ4TU-5 | 2026-08-30 18:29:37 | 43.18910 | 20.34792 | 23° | 37km/h | 26380m | 5.7m/s | -50.5°C | 0.0% | 0hPa | 0V | 00:00:00 | 00:00:00 | 00:00:00 | |
| LZ4TU-5 | 2026-08-30 18:28:12 | 43.18907 | 20.34959 | 277° | 35km/h | 25815m | 6.7m/s | -51.4°C | 0.0% | 0hPa | 0V | 00:00:00 | 00:00:00 | 00:00:00 | |
| LZ4TU-5 | 2026-08-30 18:28:07 | 43.18925 | 20.34952 | 323° | 31km/h | 25787m | 4.7m/s | -51.3°C | 0.0% | 0hPa | 0V | 00:00:00 | 00:00:00 | 00:00:00 | |
| LZ4TU-5 | 2026-08-30 18:28:02 | 43.18946 | 20.34960 | 49° | 20km/h | 25759m | 6.2m/s | -51.2°C | 0.0% | 0hPa | 0V | 00:00:00 | 00:00:00 | 00:00:00 | |
| LZ4TU-5 | 2026-08-30 18:26:39 | 43.19076 | 20.35287 | 235° | 33km/h | 25199m | 8.1m/s | -52.3°C | 0.2% | 0hPa | 0V | 00:00:00 | 00:00:00 | 00:00:00 | |
| LZ4TU-5 | 2026-08-30 18:26:34 | 43.19097 | 20.35305 | 317° | 20km/h | 25165m | 6.7m/s | -52.1°C | 0.2% | 0hPa | 0V | 00:00:00 | 00:00:00 | 00:00:00 | |
| LZ4TU-5 | 2026-08-30 18:25:19 | 43.19226 | 20.35519 | 55° | 20km/h | 24664m | 9.0m/s | -51.7°C | 0.1% | 0hPa | 0V | 00:00:00 | 00:00:00 | 00:00:00 | |
| LZ4TU-5 | 2026-08-30 18:24:00 | 43.19246 | 20.35679 | 354° | 11km/h | 24165m | 3.8m/s | -52.6°C | 0.3% | 0hPa | 0V | 00:00:00 | 00:00:00 | 00:00:00 | |
| LZ4TU-5 | 2026-08-30 18:23:55 | 43.19260 | 20.35695 | 0° | 0km/h | 24136m | 8.6m/s | -52.6°C | 0.3% | 0hPa | 0V | 00:00:00 | 00:00:00 | 00:00:00 | |
| LZ4TU-5 | 2026-08-30 18:22:39 | 43.19262 | 20.35822 | 0° | 0km/h | 23690m | 3.4m/s | -54.0°C | 0.3% | 0hPa | 0V | 00:00:00 | 00:00:00 | 00:00:00 | |
| LZ4TU-5 | 2026-08-30 18:22:34 | 43.19252 | 20.35808 | 274° | 4km/h | 23659m | 8.3m/s | -54.1°C | 0.3% | 0hPa | 0V | 00:00:00 | 00:00:00 | 00:00:00 | |
| LZ4TU-5 | 2026-08-30 18:21:18 | 43.19016 | 20.35771 | 273° | 13km/h | 23210m | 4.8m/s | -55.6°C | 0.2% | 0hPa | 0V | 00:00:00 | 00:00:00 | 00:00:00 | |
| LZ4TU-5 | 2026-08-30 18:21:13 | 43.19011 | 20.35766 | 325° | 29km/h | 23179m | 9.6m/s | -55.9°C | 0.2% | 0hPa | 0V | 00:00:00 | 00:00:00 | 00:00:00 | |
| LZ4TU-5 | 2026-08-30 18:21:09 | 43.19005 | 20.35789 | 73° | 18km/h | 23157m | 7.3m/s | -56.1°C | 0.3% | 0hPa | 0V | 00:00:00 | 00:00:00 | 00:00:00 | |
| LZ4TU-5 | 2026-08-30 18:21:05 | 43.18990 | 20.35787 | 257° | 35km/h | 23133m | 7.4m/s | -56.3°C | 0.3% | 0hPa | 0V | 00:00:00 | 00:00:00 | 00:00:00 | |
| LZ4TU-5 | 2026-08-30 18:19:47 | 43.18929 | 20.35891 | 291° | 22km/h | 22636m | 7.8m/s | -55.7°C | 0.6% | 0hPa | 0V | 00:00:00 | 00:00:00 | 00:00:00 | |
| LZ4TU-5 | 2026-08-30 18:19:42 | 43.18912 | 20.35901 | 84° | 7km/h | 22603m | 7.2m/s | -55.7°C | 0.6% | 0hPa | 0V | 00:00:00 | 00:00:00 | 00:00:00 | |
| LZ4TU-5 | 2026-08-30 18:18:26 | 43.18879 | 20.36067 | 80° | 18km/h | 22108m | 7.0m/s | -56.0°C | 0.8% | 0hPa | 0V | 00:00:00 | 00:00:00 | 00:00:00 | |
| LZ4TU-5 | 2026-08-30 18:18:22 | 43.18881 | 20.36059 | 335° | 18km/h | 22083m | 6.0m/s | -55.8°C | 0.8% | 0hPa | 0V | 00:00:00 | 00:00:00 | 00:00:00 | |
| LZ4TU-5 | 2026-08-30 18:17:08 | 43.18720 | 20.36337 | 237° | 13km/h | 21634m | 5.3m/s | -56.1°C | 1.0% | 0hPa | 0V | 00:00:00 | 00:00:00 | 00:00:00 | |
| LZ4TU-5 | 2026-08-30 18:17:03 | 43.18714 | 20.36386 | 261° | 35km/h | 21604m | 5.3m/s | -55.9°C | 1.0% | 0hPa | 0V | 00:00:00 | 00:00:00 | 00:00:00 | |
| LZ4TU-5 | 2026-08-30 18:15:48 | 43.18704 | 20.36786 | 300° | 15km/h | 21166m | 5.3m/s | -55.6°C | 1.1% | 0hPa | 0V | 00:00:00 | 00:00:00 | 00:00:00 | |
| LZ4TU-5 | 2026-08-30 18:15:43 | 43.18722 | 20.36808 | 235° | 18km/h | 21139m | 6.5m/s | -55.6°C | 1.1% | 0hPa | 0V | 00:00:00 | 00:00:00 | 00:00:00 | |
| LZ4TU-5 | 2026-08-30 18:14:28 | 43.18822 | 20.36884 | 215° | 18km/h | 20715m | 6.6m/s | -56.3°C | 0.7% | 0hPa | 0V | 00:00:00 | 00:00:00 | 00:00:00 | |
| LZ4TU-5 | 2026-08-30 18:14:23 | 43.18839 | 20.36878 | 330° | 4km/h | 20687m | 4.7m/s | -56.4°C | 0.8% | 0hPa | 0V | 00:00:00 | 00:00:00 | 00:00:00 | |
| LZ4TU-5 | 2026-08-30 18:13:09 | 43.18870 | 20.36732 | 282° | 24km/h | 20251m | 5.4m/s | -55.8°C | 1.0% | 0hPa | 0V | 00:00:00 | 00:00:00 | 00:00:00 | |
| LZ4TU-5 | 2026-08-30 18:13:04 | 43.18866 | 20.36725 | 354° | 15km/h | 20220m | 5.7m/s | -55.8°C | 1.0% | 0hPa | 0V | 00:00:00 | 00:00:00 | 00:00:00 | |
| LZ4TU-5 | 2026-08-30 18:11:49 | 43.18817 | 20.36667 | 158° | 11km/h | 19749m | 6.1m/s | -57.2°C | 1.3% | 0hPa | 0V | 00:00:00 | 00:00:00 | 00:00:00 | |
| LZ4TU-5 | 2026-08-30 18:11:44 | 43.18810 | 20.36650 | 91° | 16km/h | 19723m | 4.3m/s | -57.5°C | 1.4% | 0hPa | 0V | 00:00:00 | 00:00:00 | 00:00:00 | |
| LZ4TU-5 | 2026-08-30 18:10:30 | 43.18789 | 20.36558 | 39° | 5km/h | 19286m | 5.1m/s | -57.8°C | 1.7% | 0hPa | 0V | 00:00:00 | 00:00:00 | 00:00:00 | |
| LZ4TU-5 | 2026-08-30 18:10:25 | 43.18788 | 20.36533 | 75° | 4km/h | 19260m | 4.9m/s | -58.1°C | 1.8% | 0hPa | 0V | 00:00:00 | 00:00:00 | 00:00:00 | |
| LZ4TU-5 | 2026-08-30 18:09:09 | 43.18853 | 20.36319 | 62° | 13km/h | 18853m | 5.0m/s | -58.6°C | 1.9% | 0hPa | 0V | 00:00:00 | 00:00:00 | 00:00:00 | |
| LZ4TU-5 | 2026-08-30 18:09:04 | 43.18841 | 20.36297 | 23° | 18km/h | 18828m | 3.6m/s | -58.5°C | 1.9% | 0hPa | 0V | 00:00:00 | 00:00:00 | 00:00:00 | |
| LZ4TU-5 | 2026-08-30 18:07:49 | 43.18477 | 20.36184 | 355° | 20km/h | 18425m | 4.4m/s | -58.5°C | 2.6% | 0hPa | 0V | 00:00:00 | 00:00:00 | 00:00:00 | |
| LZ4TU-5 | 2026-08-30 18:07:45 | 43.18460 | 20.36170 | 32° | 13km/h | 18404m | 5.1m/s | -58.5°C | 2.6% | 0hPa | 0V | 00:00:00 | 00:00:00 | 00:00:00 | |
| LZ4TU-5 | 2026-08-30 18:06:25 | 43.18393 | 20.35954 | 0° | 0km/h | 17977m | 5.8m/s | -59.9°C | 3.1% | 0hPa | 0V | 00:00:00 | 00:00:00 | 00:00:00 | |
| LZ4TU-5 | 2026-08-30 18:06:21 | 43.18395 | 20.35945 | 118° | 16km/h | 17955m | 5.1m/s | -59.9°C | 3.2% | 0hPa | 0V | 00:00:00 | 00:00:00 | 00:00:00 | |
| LZ4TU-5 | 2026-08-30 18:05:06 | 43.18520 | 20.35738 | 89° | 9km/h | 17508m | 4.7m/s | -58.7°C | 3.0% | 0hPa | 0V | 00:00:00 | 00:00:00 | 00:00:00 | |
| LZ4TU-5 | 2026-08-30 18:05:01 | 43.18539 | 20.35690 | 109° | 20km/h | 17483m | 4.5m/s | -59.1°C | 3.0% | 0hPa | 0V | 00:00:00 | 00:00:00 | 00:00:00 | |
| LZ4TU-5 | 2026-08-30 18:03:47 | 43.18400 | 20.34962 | 49° | 18km/h | 17076m | 5.0m/s | -60.8°C | 3.9% | 0hPa | 0V | 00:00:00 | 00:00:00 | 00:00:00 | |
| LZ4TU-5 | 2026-08-30 18:03:42 | 43.18373 | 20.34926 | 40° | 11km/h | 17046m | 5.1m/s | -60.7°C | 3.9% | 0hPa | 0V | 00:00:00 | 00:00:00 | 00:00:00 | |
| LZ4TU-5 | 2026-08-30 18:02:27 | 43.18160 | 20.34648 | 67° | 29km/h | 16623m | 9.9m/s | -58.2°C | 5.1% | 0hPa | 0V | 00:00:00 | 00:00:00 | 00:00:00 | |
| LZ4TU-5 | 2026-08-30 18:02:23 | 43.18151 | 20.34615 | 49° | 16km/h | 16597m | 5.3m/s | -58.3°C | 5.2% | 0hPa | 0V | 00:00:00 | 00:00:00 | 00:00:00 | |
| LZ4TU-5 | 2026-08-30 18:01:10 | 43.18338 | 20.33925 | 137° | 42km/h | 16235m | 4.7m/s | -60.5°C | 6.4% | 0hPa | 0V | 00:00:00 | 00:00:00 | 00:00:00 | |
| LZ4TU-5 | 2026-08-30 18:01:06 | 43.18361 | 20.33886 | 137° | 57km/h | 16215m | 6.8m/s | -60.5°C | 6.5% | 0hPa | 0V | 00:00:00 | 00:00:00 | 00:00:00 | |
| LZ4TU-5 | 2026-08-30 17:59:46 | 43.18918 | 20.32773 | 115° | 57km/h | 15818m | 5.2m/s | -60.5°C | 8.3% | 0hPa | 0V | 00:00:00 | 00:00:00 | 00:00:00 | |
| LZ4TU-5 | 2026-08-30 17:59:41 | 43.18933 | 20.32686 | 103° | 58km/h | 15793m | 5.4m/s | -61.0°C | 8.5% | 0hPa | 0V | 00:00:00 | 00:00:00 | 00:00:00 | |
| LZ4TU-5 | 2026-08-30 17:58:21 | 43.18997 | 20.31390 | 94° | 44km/h | 15419m | 5.1m/s | -61.2°C | 10.7% | 0hPa | 0V | 00:00:00 | 00:00:00 | 00:00:00 | |
| LZ4TU-5 | 2026-08-30 17:56:56 | 43.18823 | 20.30306 | 0° | 0km/h | 14910m | 2.9m/s | -60.5°C | 14.6% | 0hPa | 0V | 00:00:00 | 00:00:00 | 00:00:00 | |
| LZ4TU-5 | 2026-08-30 17:56:51 | 43.18833 | 20.30254 | 158° | 15km/h | 14871m | 6.6m/s | -60.2°C | 14.8% | 0hPa | 0V | 00:00:00 | 00:00:00 | 00:00:00 | |
| LZ4TU-5 | 2026-08-30 17:56:47 | 43.18842 | 20.30222 | 69° | 15km/h | 14846m | 8.8m/s | -59.9°C | 15.0% | 0hPa | 0V | 00:00:00 | 00:00:00 | 00:00:00 | |
| LZ4TU-5 | 2026-08-30 17:55:26 | 43.19543 | 20.29145 | 151° | 71km/h | 14381m | 6.0m/s | -60.6°C | 17.7% | 0hPa | 0V | 00:00:00 | 00:00:00 | 00:00:00 | |
| LZ4TU-5 | 2026-08-30 17:55:21 | 43.19596 | 20.29034 | 130° | 100km/h | 14355m | 2.7m/s | -60.5°C | 17.9% | 0hPa | 0V | 00:00:00 | 00:00:00 | 00:00:00 | |
| LZ4TU-5 | 2026-08-30 17:55:17 | 43.19629 | 20.28954 | 116° | 62km/h | 14327m | 7.1m/s | -60.4°C | 18.1% | 0hPa | 0V | 00:00:00 | 00:00:00 | 00:00:00 | |
| LZ4TU-5 | 2026-08-30 17:55:13 | 43.19673 | 20.28859 | 113° | 71km/h | 14294m | 6.8m/s | -60.3°C | 18.2% | 0hPa | 0V | 00:00:00 | 00:00:00 | 00:00:00 | |
| LZ4TU-5 | 2026-08-30 17:53:55 | 43.20084 | 20.27280 | 100° | 51km/h | 13860m | 4.2m/s | -59.9°C | 20.3% | 0hPa | 0V | 00:00:00 | 00:00:00 | 00:00:00 | |
| LZ4TU-5 | 2026-08-30 17:53:50 | 43.20108 | 20.27186 | 101° | 58km/h | 13834m | 3.8m/s | -59.7°C | 20.5% | 0hPa | 0V | 00:00:00 | 00:00:00 | 00:00:00 | |
| LZ4TU-5 | 2026-08-30 17:52:33 | 43.20453 | 20.25511 | 106° | 66km/h | 13462m | 5.2m/s | -58.8°C | 23.5% | 0hPa | 0V | 00:00:00 | 00:00:00 | 00:00:00 | |
| LZ4TU-5 | 2026-08-30 17:52:29 | 43.20475 | 20.25437 | 116° | 58km/h | 13444m | 4.7m/s | -58.6°C | 23.7% | 0hPa | 0V | 00:00:00 | 00:00:00 | 00:00:00 | |
| LZ4TU-5 | 2026-08-30 17:51:03 | 43.20874 | 20.23712 | 110° | 75km/h | 13014m | 5.6m/s | -57.2°C | 29.6% | 0hPa | 0V | 00:00:00 | 00:00:00 | 00:00:00 | |
| LZ4TU-5 | 2026-08-30 17:50:59 | 43.20902 | 20.23647 | 100° | 57km/h | 12992m | 5.6m/s | -57.2°C | 30.2% | 0hPa | 0V | 00:00:00 | 00:00:00 | 00:00:00 | |
| LZ4TU-5 | 2026-08-30 17:49:37 | 43.21416 | 20.22350 | 133° | 64km/h | 12587m | 5.7m/s | -57.2°C | 36.9% | 0hPa | 0V | 00:00:00 | 00:00:00 | 00:00:00 | |
| LZ4TU-5 | 2026-08-30 17:48:18 | 43.22064 | 20.21159 | 119° | 44km/h | 12170m | 7.3m/s | -55.5°C | 40.2% | 0hPa | 0V | 00:00:00 | 00:00:00 | 00:00:00 | |
| LZ4TU-5 | 2026-08-30 17:48:14 | 43.22091 | 20.21088 | 139° | 58km/h | 12148m | 4.0m/s | -55.4°C | 40.4% | 0hPa | 0V | 00:00:00 | 00:00:00 | 00:00:00 | |
| LZ4TU-5 | 2026-08-30 17:46:57 | 43.22667 | 20.19821 | 108° | 84km/h | 11757m | 2.6m/s | -53.3°C | 46.0% | 0hPa | 0V | 00:00:00 | 00:00:00 | 00:00:00 | |
| LZ4TU-5 | 2026-08-30 17:46:52 | 43.22711 | 20.19738 | 120° | 75km/h | 11732m | 7.1m/s | -53.1°C | 47.0% | 0hPa | 0V | 00:00:00 | 00:00:00 | 00:00:00 | |
| LZ4TU-5 | 2026-08-30 17:45:31 | 43.23067 | 20.18204 | 105° | 62km/h | 11295m | 4.5m/s | -50.2°C | 52.0% | 0hPa | 0V | 00:00:00 | 00:00:00 | 00:00:00 | |
| LZ4TU-5 | 2026-08-30 17:45:27 | 43.23084 | 20.18140 | 96° | 60km/h | 11274m | 6.0m/s | -50.0°C | 52.4% | 0hPa | 0V | 00:00:00 | 00:00:00 | 00:00:00 | |
| LZ4TU-5 | 2026-08-30 17:42:43 | 43.23406 | 20.14998 | 132° | 44km/h | 10339m | 4.4m/s | -41.6°C | 53.4% | 0hPa | 0V | 00:00:00 | 00:00:00 | 00:00:00 | |
| LZ4TU-5 | 2026-08-30 17:42:39 | 43.23417 | 20.14916 | 76° | 73km/h | 10316m | 4.4m/s | -41.4°C | 54.2% | 0hPa | 0V | 00:00:00 | 00:00:00 | 00:00:00 | |
| LZ4TU-5 | 2026-08-30 17:41:20 | 43.23660 | 20.13602 | 89° | 49km/h | 9884m | 4.0m/s | -38.2°C | 50.9% | 0hPa | 0V | 00:00:00 | 00:00:00 | 00:00:00 | |
| LZ4TU-5 | 2026-08-30 17:41:15 | 43.23693 | 20.13526 | 118° | 24km/h | 9849m | 4.7m/s | -37.9°C | 51.6% | 0hPa | 0V | 00:00:00 | 00:00:00 | 00:00:00 | |
| LZ4TU-5 | 2026-08-30 17:39:56 | 43.24118 | 20.12312 | 98° | 57km/h | 9430m | 3.5m/s | -34.9°C | 38.8% | 0hPa | 0V | 00:00:00 | 00:00:00 | 00:00:00 |